Time;durP1;ratioP1;P1;durP2;ratioP2;P2;SDS_P1;SDS_P2;PMS_P1;PMS_P2;Temp;Humidity;BMP_temperature;BMP_pressure;BME280_temperature;BME280_humidity;BME280_pressure;Samples;Min_cycle;Max_cycle;Signal;HPM_P1;HPM_P2
2022/06/17 00:02:14;;;;;;;41.72;32.10;;;;;;;18.08;67.71;95182.56;5076559;28;20204;-75
2022/06/17 00:04:41;;;;;;;39.38;30.42;;;;;;;18.07;67.93;95184.56;5077488;28;20201;-75
2022/06/17 00:07:12;;;;;;;38.17;30.90;;;;;;;18.09;68.36;95186.97;5077427;28;20197;-75
2022/06/17 00:09:39;;;;;;;37.22;28.92;;;;;;;18.04;68.14;95185.38;5077873;28;20609;-74
2022/06/17 00:12:13;;;;;;;35.17;27.25;;;;;;;17.96;68.10;95192.16;5075929;28;20185;-74
2022/06/17 00:17:21;;;;;;;32.50;26.50;;;;;;;17.94;68.33;95188.97;5075485;28;20201;-74
2022/06/17 00:19:48;;;;;;;33.20;26.63;;;;;;;17.90;68.73;95193.72;5075917;28;20193;-74
2022/06/17 00:22:15;;;;;;;34.42;26.52;;;;;;;17.93;68.92;95190.94;5076723;28;20189;-74
2022/06/17 00:24:42;;;;;;;36.13;26.80;;;;;;;17.96;69.12;95206.09;5076568;28;20243;-74
2022/06/17 00:27:12;;;;;;;31.73;27.35;;;;;;;17.98;68.52;95195.34;5077410;28;20186;-75
2022/06/17 00:29:39;;;;;;;38.90;29.63;;;;;;;17.97;68.54;95190.94;5078742;28;20189;-74
2022/06/17 00:32:07;;;;;;;36.97;28.08;;;;;;;17.96;68.55;95190.16;5077191;28;20201;-74
2022/06/17 00:34:33;;;;;;;32.20;24.05;;;;;;;17.94;68.64;95195.34;5077473;28;20185;-74
2022/06/17 00:37:01;;;;;;;30.45;23.92;;;;;;;17.92;68.90;95203.31;5077022;28;20624;-74
2022/06/17 00:39:30;;;;;;;25.52;22.48;;;;;;;17.93;68.76;95198.50;5077472;28;20204;-74
2022/06/17 00:42:03;;;;;;;22.00;19.33;;;;;;;17.93;68.71;95199.31;5077535;28;20181;-75
2022/06/17 00:44:37;;;;;;;21.02;18.77;;;;;;;17.93;68.84;95192.94;5076435;28;20272;-75
2022/06/17 00:47:08;;;;;;;17.50;15.70;;;;;;;17.90;68.75;95188.97;5076484;28;20186;-75
2022/06/17 00:49:41;;;;;;;17.02;15.43;;;;;;;17.88;68.74;95188.56;5076014;28;20189;-75
2022/06/17 00:52:15;;;;;;;17.25;15.75;;;;;;;17.83;68.67;95179.75;5076539;28;20189;-75
2022/06/17 00:54:45;;;;;;;15.77;14.35;;;;;;;17.79;68.97;95186.16;5078618;28;20512;-74
2022/06/17 00:57:19;;;;;;;15.80;14.40;;;;;;;17.75;69.05;95182.53;5077507;28;20201;-75
2022/06/17 01:00:16;;;;;;;16.95;15.32;;;;;;;17.73;69.32;95175.75;5075621;28;20204;-75
2022/06/17 01:02:46;;;;;;;16.40;14.88;;;;;;;17.72;69.17;95183.34;5074366;28;20220;-75
2022/06/17 01:05:14;;;;;;;15.07;13.68;;;;;;;17.70;69.13;95182.91;5079287;28;20208;-74
2022/06/17 01:07:44;;;;;;;16.58;15.07;;;;;;;17.68;69.23;95176.13;5079948;28;20212;-76
2022/06/17 01:10:13;;;;;;;15.73;14.00;;;;;;;17.66;69.19;95172.97;5078721;28;20209;-74
2022/06/17 01:12:43;;;;;;;15.98;14.32;;;;;;;17.65;69.09;95179.75;5078450;28;20197;-75
2022/06/17 01:15:13;;;;;;;16.15;14.48;;;;;;;17.63;69.17;95176.53;5079094;28;20196;-75
2022/06/17 01:17:41;;;;;;;16.05;14.57;;;;;;;17.61;69.23;95176.94;5079491;28;20177;-75
2022/06/17 01:20:11;;;;;;;15.82;14.35;;;;;;;17.58;68.76;95169.38;5078075;28;20205;-74
2022/06/17 01:22:41;;;;;;;14.98;13.68;;;;;;;17.54;68.67;95172.16;5077053;28;20208;-74
2022/06/17 01:25:11;;;;;;;15.27;13.93;;;;;;;17.54;69.08;95166.56;5078404;28;20236;-75
2022/06/17 01:27:41;;;;;;;16.05;14.60;;;;;;;17.53;68.94;95162.16;5077986;28;20181;-74
2022/06/17 01:30:10;;;;;;;15.45;14.07;;;;;;;17.53;68.88;95164.94;5077569;28;20202;-75
2022/06/17 01:32:40;;;;;;;14.25;13.05;;;;;;;17.54;68.71;95155.41;5079202;28;20189;-74
2022/06/17 01:35:09;;;;;;;15.10;13.77;;;;;;;17.55;68.64;95157.00;5078527;28;20193;-74
2022/06/17 01:37:36;;;;;;;14.93;13.52;;;;;;;17.56;68.25;95152.22;5077930;28;20506;-76
2022/06/17 01:40:05;;;;;;;16.67;14.98;;;;;;;17.52;68.66;95149.41;5078583;28;20185;-75
2022/06/17 01:42:32;;;;;;;16.02;14.43;;;;;;;17.49;68.90;95147.41;5078987;28;20197;-75
2022/06/17 01:44:59;;;;;;;18.27;16.42;;;;;;;17.40;68.92;95140.66;5077940;28;20196;-75
2022/06/17 01:47:28;;;;;;;18.38;16.48;;;;;;;17.30;69.10;95145.78;5078668;28;20201;-76
2022/06/17 01:49:58;;;;;;;18.67;16.77;;;;;;;17.25;68.96;95145.41;5078479;28;20201;-75
2022/06/17 01:52:28;;;;;;;19.30;17.25;;;;;;;17.26;69.11;95146.97;5079777;28;20220;-75
2022/06/17 01:54:59;;;;;;;17.38;15.57;;;;;;;17.26;69.28;95146.97;5079192;28;20201;-75
2022/06/17 01:57:33;;;;;;;18.42;16.52;;;;;;;17.26;69.51;95145.00;5078956;28;20181;-75
2022/06/17 02:00:06;;;;;;;27.63;23.17;;;;;;;17.21;68.90;95148.19;5078334;28;20204;-75
2022/06/17 02:02:34;;;;;;;34.10;24.77;;;;;;;17.19;69.05;95156.13;5078276;28;20185;-74
2022/06/17 02:05:07;;;;;;;26.83;20.27;;;;;;;17.19;69.45;95158.91;5077901;28;20209;-76
2022/06/17 02:07:40;;;;;;;19.85;17.95;;;;;;;17.19;69.38;95160.91;5078062;28;20197;-75
2022/06/17 02:10:07;;;;;;;14.40;13.10;;;;;;;17.16;69.40;95159.69;5077188;28;20536;-76
2022/06/17 02:12:36;;;;;;;13.70;12.60;;;;;;;17.16;68.61;95168.03;5077756;28;20204;-76
2022/06/17 02:15:03;;;;;;;13.82;12.63;;;;;;;17.16;68.98;95176.41;5075108;28;20192;-75
2022/06/17 02:17:32;;;;;;;13.48;12.35;;;;;;;17.15;69.08;95171.25;5076319;28;20647;-74
2022/06/17 02:19:59;;;;;;;14.10;12.75;;;;;;;17.12;68.74;95172.81;5077364;28;20199;-75
2022/06/17 02:22:29;;;;;;;14.25;12.85;;;;;;;17.10;68.94;95177.97;5076939;28;20608;-74
2022/06/17 02:24:58;;;;;;;13.73;12.48;;;;;;;17.09;68.88;95173.59;5076940;28;20229;-74
2022/06/17 02:27:26;;;;;;;13.70;12.40;;;;;;;17.10;68.86;95169.59;5079553;28;20181;-73
2022/06/17 02:29:55;;;;;;;13.88;12.68;;;;;;;17.07;68.40;95171.22;5077155;28;20185;-75
2022/06/17 02:32:22;;;;;;;13.73;12.43;;;;;;;17.02;68.17;95168.78;5076406;28;20197;-75
2022/06/17 02:34:53;;;;;;;15.68;14.10;;;;;;;17.02;68.63;95168.78;5076946;28;20177;-74
2022/06/17 02:37:20;;;;;;;16.33;14.82;;;;;;;16.99;68.65;95163.19;5075818;28;20193;-75
2022/06/17 02:39:49;;;;;;;14.80;13.43;;;;;;;16.96;68.88;95164.81;5076316;28;20204;-76
2022/06/17 02:42:19;;;;;;;13.30;12.13;;;;;;;16.93;69.34;95164.78;5077784;28;20209;-76
2022/06/17 02:44:48;;;;;;;12.25;11.23;;;;;;;16.91;69.12;95173.50;5077420;28;20197;-76
2022/06/17 02:47:17;;;;;;;24.15;18.67;;;;;;;16.84;68.72;95173.47;5076412;28;20205;-76
2022/06/17 02:49:44;;;;;;;28.38;20.98;;;;;;;16.71;68.83;95172.22;5077531;28;20197;-76
2022/06/17 02:52:14;;;;;;;32.28;21.83;;;;;;;16.57;68.85;95172.94;5076430;28;20312;-76
2022/06/17 02:54:43;;;;;;;32.97;22.48;;;;;;;16.53;69.15;95175.69;5076028;28;20200;-76
2022/06/17 02:57:19;;;;;;;30.92;21.50;;;;;;;16.55;69.69;95180.84;5076092;28;20254;-76
2022/06/17 02:59:50;;;;;;;30.13;21.48;;;;;;;16.59;69.56;95173.31;5077030;28;20269;-76
2022/06/17 03:02:23;;;;;;;24.60;18.60;;;;;;;16.56;69.88;95166.56;5076420;28;20223;-76
2022/06/17 03:04:50;;;;;;;18.13;15.40;;;;;;;16.59;69.73;95167.75;5076526;28;20531;-76
2022/06/17 03:07:19;;;;;;;17.23;14.57;;;;;;;16.59;70.06;95171.34;5077099;28;20201;-75
2022/06/17 03:09:46;;;;;;;15.57;13.98;;;;;;;16.59;70.00;95164.97;5077783;28;20185;-75
2022/06/17 03:12:15;;;;;;;15.63;13.38;;;;;;;16.60;69.67;95164.59;5079771;28;20216;-75
2022/06/17 03:14:44;;;;;;;14.60;12.80;;;;;;;16.61;69.71;95165.38;5079479;28;20203;-75
2022/06/17 03:17:13;;;;;;;13.13;11.98;;;;;;;16.63;69.93;95165.00;5078186;28;20193;-74
2022/06/17 03:19:42;;;;;;;14.98;13.40;;;;;;;16.64;70.13;95163.81;5077772;28;20197;-74
2022/06/17 03:22:11;;;;;;;22.33;16.60;;;;;;;16.63;69.87;95167.78;5075037;28;20205;-72
2022/06/17 03:24:44;;;;;;;32.40;21.75;;;;;;;16.57;69.78;95167.34;5074783;28;20290;-71
2022/06/17 03:27:15;;;;;;;33.95;22.48;;;;;;;16.53;69.87;95169.31;5074838;28;20222;-72
2022/06/17 03:29:43;;;;;;;41.17;24.42;;;;;;;16.50;69.85;95172.88;5075763;28;20223;-71
2022/06/17 03:32:16;;;;;;;34.20;21.98;;;;;;;16.45;69.99;95174.06;5075212;28;20224;-72
2022/06/17 03:34:46;;;;;;;33.05;22.52;;;;;;;16.40;69.96;95168.03;5075380;28;20189;-73
2022/06/17 03:37:19;;;;;;;38.53;23.80;;;;;;;16.47;70.28;95179.22;5075056;28;20193;-73
2022/06/17 03:39:49;;;;;;;34.60;23.40;;;;;;;16.55;69.93;95178.06;5076665;28;20628;-73
2022/06/17 03:42:20;;;;;;;37.35;23.90;;;;;;;16.63;69.51;95184.47;5058860;28;20205;-73
2022/06/17 03:44:50;;;;;;;34.45;22.42;;;;;;;16.67;69.53;95179.75;5075895;28;20189;-73
2022/06/17 03:47:20;;;;;;;35.60;23.83;;;;;;;16.71;69.50;95186.13;5075116;28;20197;-73
2022/06/17 03:49:52;;;;;;;31.30;22.25;;;;;;;16.75;69.54;95189.78;5074527;28;20204;-73
2022/06/17 03:52:23;;;;;;;29.23;20.45;;;;;;;16.75;70.09;95186.97;5076451;28;20211;-73
2022/06/17 03:54:49;;;;;;;29.83;20.48;;;;;;;16.78;70.13;95194.56;5075340;28;20196;-75
2022/06/17 03:57:17;;;;;;;30.40;19.92;;;;;;;16.83;69.64;95196.97;5074073;28;20632;-74
2022/06/17 03:59:46;;;;;;;17.55;14.68;;;;;;;16.87;69.36;95208.13;5075080;28;20201;-74
2022/06/17 04:02:15;;;;;;;15.32;13.70;;;;;;;16.90;69.52;95201.78;5075204;28;20181;-74
2022/06/17 04:04:44;;;;;;;23.52;18.50;;;;;;;16.94;69.92;95202.59;5074600;28;20204;-75
2022/06/17 04:07:13;;;;;;;22.77;17.15;;;;;;;16.94;69.91;95203.38;5075339;28;20204;-75
2022/06/17 04:09:42;;;;;;;21.05;16.00;;;;;;;16.93;70.20;95212.16;5075466;28;20201;-74
2022/06/17 04:12:24;;;;;;;15.80;12.77;;;;;;;16.94;69.81;95211.75;5075252;28;20209;-74
2022/06/17 04:14:57;;;;;;;11.68;10.63;;;;;;;16.94;69.41;95217.31;5074974;28;20192;-74
2022/06/17 04:17:29;;;;;;;11.73;10.73;;;;;;;16.93;69.07;95212.94;5074136;28;20204;-74
2022/06/17 04:20:26;;;;;;;11.02;9.93;;;;;;;16.95;68.90;95218.09;5074587;28;20528;-74
2022/06/17 04:22:56;;;;;;;11.05;10.05;;;;;;;16.91;68.81;95218.09;5070100;28;20201;-74
2022/06/17 04:25:32;;;;;;;10.77;9.73;;;;;;;16.90;68.85;95219.28;5073736;28;20309;-74
2022/06/17 04:28:03;;;;;;;9.88;9.00;;;;;;;16.93;68.47;95214.94;5074922;28;20564;-74
2022/06/17 04:30:32;;;;;;;10.32;9.32;;;;;;;16.95;69.21;95223.69;5073990;28;20205;-74
2022/06/17 04:33:02;;;;;;;9.60;8.73;;;;;;;16.96;69.19;95212.16;5074823;28;20274;-74
2022/06/17 04:35:29;;;;;;;10.25;9.35;;;;;;;16.95;69.75;95209.75;5073931;28;20209;-74
2022/06/17 04:37:57;;;;;;;9.65;8.75;;;;;;;16.97;69.55;95210.16;5076013;28;20185;-74
2022/06/17 04:40:32;;;;;;;10.02;9.07;;;;;;;16.99;69.21;95210.56;5077555;28;20208;-74
2022/06/17 04:42:59;;;;;;;10.55;9.65;;;;;;;17.03;69.38;95212.19;5078757;28;20192;-74
2022/06/17 04:45:28;;;;;;;9.85;8.95;;;;;;;17.08;69.47;95219.38;5077589;28;20235;-74
2022/06/17 04:47:55;;;;;;;10.13;9.32;;;;;;;17.07;69.49;95220.56;5078537;28;20185;-74
2022/06/17 04:50:24;;;;;;;9.93;9.00;;;;;;;17.07;69.85;95215.78;5077541;28;20205;-74
2022/06/17 04:52:54;;;;;;;10.00;9.10;;;;;;;17.08;69.86;95214.59;5077793;28;20223;-74
2022/06/17 04:55:25;;;;;;;10.68;9.40;;;;;;;17.10;70.00;95222.56;5077268;28;20197;-74
2022/06/17 04:57:52;;;;;;;9.88;8.95;;;;;;;17.12;69.77;95217.41;5078885;28;20354;-74
2022/06/17 05:00:21;;;;;;;9.13;8.43;;;;;;;17.17;69.22;95216.22;5077492;28;20628;-74
2022/06/17 05:02:49;;;;;;;9.70;8.73;;;;;;;17.19;68.72;95213.84;5077618;28;20259;-74
2022/06/17 05:05:22;;;;;;;9.25;8.40;;;;;;;17.22;68.48;95215.84;5077447;28;20201;-74
2022/06/17 05:07:51;;;;;;;8.98;8.23;;;;;;;17.20;68.76;95212.66;5077345;28;20205;-74
2022/06/17 05:10:21;;;;;;;8.68;7.88;;;;;;;17.19;68.57;95209.06;5077435;28;20208;-74
2022/06/17 05:12:53;;;;;;;10.30;9.30;;;;;;;17.21;68.41;95211.44;5077300;28;20231;-74
2022/06/17 05:15:22;;;;;;;9.85;8.85;;;;;;;17.26;69.34;95208.31;5077118;28;20193;-75
2022/06/17 05:17:49;;;;;;;9.27;8.30;;;;;;;17.27;69.33;95210.69;5077539;28;20197;-74
2022/06/17 05:20:19;;;;;;;10.25;9.35;;;;;;;17.27;69.81;95213.47;5077254;28;20228;-74
2022/06/17 05:22:47;;;;;;;11.20;10.27;;;;;;;17.32;69.53;95220.69;5077245;28;20193;-74
2022/06/17 05:25:18;;;;;;;11.40;10.50;;;;;;;17.33;69.13;95208.34;5076616;28;20240;-74
2022/06/17 05:27:45;;;;;;;10.88;9.77;;;;;;;17.36;69.24;95215.09;5076956;28;20204;-74
2022/06/17 05:30:14;;;;;;;11.52;10.43;;;;;;;17.38;70.09;95210.72;5077243;28;20197;-74
2022/06/17 05:32:41;;;;;;;12.32;11.02;;;;;;;17.39;70.50;95208.72;5077266;28;20212;-74
2022/06/17 05:35:09;;;;;;;11.27;10.23;;;;;;;17.44;69.99;95205.56;5076786;28;20201;-74
2022/06/17 05:37:36;;;;;;;11.35;10.25;;;;;;;17.46;69.44;95200.38;5077179;28;20189;-74
2022/06/17 05:40:05;;;;;;;10.52;9.60;;;;;;;17.47;69.80;95205.59;5077693;28;20189;-74
2022/06/17 05:42:32;;;;;;;11.23;10.13;;;;;;;17.51;69.78;95203.59;5077368;28;20528;-74
2022/06/17 05:44:59;;;;;;;11.30;10.23;;;;;;;17.56;69.58;95194.03;5076776;28;20201;-74
2022/06/17 05:47:27;;;;;;;11.10;10.00;;;;;;;17.61;68.93;95195.63;5077286;28;20190;-74
2022/06/17 05:49:54;;;;;;;11.55;10.35;;;;;;;17.63;68.76;95194.06;5077371;28;20193;-74
2022/06/17 05:52:21;;;;;;;11.88;10.70;;;;;;;17.67;68.43;95191.28;5077510;28;20201;-74
2022/06/17 05:54:49;;;;;;;11.65;10.55;;;;;;;17.70;68.43;95193.28;5076558;28;20498;-74
2022/06/17 05:57:17;;;;;;;11.60;10.50;;;;;;;17.75;68.55;95184.50;5077263;28;20200;-74
2022/06/17 05:59:43;;;;;;;14.45;10.82;;;;;;;17.78;68.66;95187.34;5076532;28;20258;-74
2022/06/17 06:02:11;;;;;;;11.90;10.75;;;;;;;17.85;68.87;95188.53;5077422;28;20181;-74
2022/06/17 06:04:39;;;;;;;12.15;10.98;;;;;;;17.88;68.97;95188.56;5077060;28;20602;-74
2022/06/17 06:07:06;;;;;;;10.93;10.00;;;;;;;17.93;68.25;95187.34;5077167;28;20219;-74
2022/06/17 06:09:33;;;;;;;11.82;10.68;;;;;;;18.00;67.48;95181.78;5076916;28;20554;-74
2022/06/17 06:12:00;;;;;;;11.30;10.30;;;;;;;18.04;67.32;95183.38;5077134;28;20216;-74
2022/06/17 06:14:26;;;;;;;11.68;10.63;;;;;;;18.11;66.81;95177.00;5076157;28;20212;-74
2022/06/17 06:16:53;;;;;;;11.13;10.07;;;;;;;18.17;66.42;95185.78;5076288;28;20219;-74
2022/06/17 06:19:20;;;;;;;12.27;10.98;;;;;;;18.20;66.40;95191.34;5076963;28;20188;-74
2022/06/17 06:21:48;;;;;;;11.95;10.68;;;;;;;18.20;66.92;95185.78;5076978;28;20193;-74
2022/06/17 06:24:15;;;;;;;11.50;10.30;;;;;;;18.18;67.47;95185.38;5075923;28;20625;-74
2022/06/17 06:26:42;;;;;;;11.73;10.57;;;;;;;18.17;67.06;95182.97;5076913;28;20185;-74
2022/06/17 06:29:08;;;;;;;11.73;10.52;;;;;;;18.19;66.67;95186.16;5076808;28;20185;-74
2022/06/17 06:31:37;;;;;;;10.05;9.15;;;;;;;18.23;66.66;95184.19;5076553;28;20220;-74
2022/06/17 06:34:04;;;;;;;10.40;9.40;;;;;;;18.27;66.12;95177.41;5075749;28;20204;-74
2022/06/17 06:36:31;;;;;;;11.95;10.02;;;;;;;18.35;65.33;95177.38;5076622;28;20251;-74
2022/06/17 06:38:59;;;;;;;11.13;10.23;;;;;;;18.41;65.29;95176.59;5076291;28;20602;-73
2022/06/17 06:41:26;;;;;;;11.35;10.15;;;;;;;18.47;65.26;95168.59;5075686;28;20527;-73
2022/06/17 06:43:53;;;;;;;11.68;10.65;;;;;;;18.47;65.29;95166.59;5076176;28;20220;-74
2022/06/17 06:46:22;;;;;;;12.77;11.63;;;;;;;18.51;65.17;95172.16;5076176;28;20185;-74
2022/06/17 06:48:49;;;;;;;11.85;10.80;;;;;;;18.55;65.04;95161.78;5076374;28;20243;-74
2022/06/17 06:51:16;;;;;;;10.85;9.80;;;;;;;18.61;65.13;95170.56;5076273;28;20185;-74
2022/06/17 06:53:43;;;;;;;10.43;9.50;;;;;;;18.65;65.33;95171.34;5076451;28;20205;-74
2022/06/17 06:56:11;;;;;;;10.18;9.27;;;;;;;18.70;65.58;95170.94;5075918;28;20196;-74
2022/06/17 06:58:38;;;;;;;10.63;8.85;;;;;;;18.71;65.18;95167.78;5076296;28;20189;-74
2022/06/17 07:01:06;;;;;;;11.88;9.55;;;;;;;18.75;64.90;95176.94;5074829;28;20377;-74
2022/06/17 07:03:33;;;;;;;11.40;10.40;;;;;;;18.80;64.71;95169.34;5075823;28;20225;-74
2022/06/17 07:06:02;;;;;;;9.55;8.00;;;;;;;18.85;64.87;95164.16;5075989;28;20189;-74
2022/06/17 07:08:30;;;;;;;10.60;8.35;;;;;;;18.88;64.94;95168.09;5075099;28;20200;-74
2022/06/17 07:10:59;;;;;;;10.15;8.27;;;;;;;18.91;65.70;95164.50;5076022;28;20255;-74
2022/06/17 07:13:28;;;;;;;9.55;8.68;;;;;;;18.97;64.92;95160.91;5075786;28;20209;-74
2022/06/17 07:15:55;;;;;;;11.10;9.02;;;;;;;19.02;64.33;95159.69;5075881;28;20189;-74
2022/06/17 07:18:23;;;;;;;9.65;8.40;;;;;;;19.04;65.07;95167.69;5075555;28;20251;-74
2022/06/17 07:20:52;;;;;;;11.65;9.23;;;;;;;19.03;65.25;95166.88;5074554;28;20193;-74
2022/06/17 07:23:28;;;;;;;9.77;8.40;;;;;;;19.04;64.42;95162.88;5074528;28;20197;-74
2022/06/17 07:25:55;;;;;;;9.55;7.80;;;;;;;19.09;63.92;95154.06;5073836;28;20244;-74
2022/06/17 07:28:23;;;;;;;8.65;7.32;;;;;;;19.15;64.29;95157.25;5074987;28;20204;-74
2022/06/17 07:30:53;;;;;;;8.55;7.78;;;;;;;19.18;64.08;95162.03;5073933;28;20197;-74
2022/06/17 07:33:21;;;;;;;12.43;8.07;;;;;;;19.19;64.74;95155.22;5073984;28;20208;-74
2022/06/17 07:35:49;;;;;;;9.63;8.60;;;;;;;19.20;64.52;95146.41;5074859;28;20192;-74
2022/06/17 07:41:05;;;;;;;10.15;9.25;;;;;;;19.29;64.26;95146.00;5073608;28;20197;-74
2022/06/17 07:43:32;;;;;;;9.18;8.35;;;;;;;19.33;63.93;95143.19;5074321;28;20224;-74
2022/06/17 07:46:01;;;;;;;8.20;7.40;;;;;;;19.39;64.40;95147.94;5073730;28;20185;-74
2022/06/17 07:48:28;;;;;;;8.35;7.63;;;;;;;19.47;62.35;95143.88;5073694;28;20651;-74
2022/06/17 07:50:58;;;;;;;8.05;7.25;;;;;;;19.53;62.50;95144.25;5074040;28;20193;-74
2022/06/17 07:53:26;;;;;;;9.18;7.28;;;;;;;19.56;62.84;95142.63;5073685;28;20220;-74
2022/06/17 07:55:53;;;;;;;8.88;8.02;;;;;;;19.58;62.58;95135.44;5073444;28;20193;-74
2022/06/17 07:58:20;;;;;;;12.63;11.38;;;;;;;19.60;63.08;95133.00;5073728;28;20197;-74
2022/06/17 08:00:48;;;;;;;11.18;9.90;;;;;;;19.61;63.24;95126.22;5073725;28;20205;-74
2022/06/17 08:03:18;;;;;;;8.43;7.63;;;;;;;19.65;63.24;95135.41;5073558;28;20601;-74
2022/06/17 08:05:46;;;;;;;8.73;7.93;;;;;;;19.68;62.52;95133.78;5073250;28;20189;-74
2022/06/17 08:08:21;;;;;;;8.25;7.50;;;;;;;19.69;62.29;95133.38;5073391;28;20200;-74
2022/06/17 08:10:49;;;;;;;8.65;7.85;;;;;;;19.72;62.97;95117.78;5073271;28;20199;-74
2022/06/17 08:13:16;;;;;;;8.77;7.97;;;;;;;19.87;63.03;95124.06;5071789;28;20224;-74
2022/06/17 08:15:43;;;;;;;8.35;7.28;;;;;;;19.96;62.67;95115.97;5073122;28;20197;-74
2022/06/17 08:18:10;;;;;;;8.70;7.90;;;;;;;20.02;63.31;95119.94;5073629;28;20242;-74
2022/06/17 08:20:39;;;;;;;8.65;7.78;;;;;;;20.13;63.38;95120.63;5073012;28;20201;-74
2022/06/17 08:23:07;;;;;;;12.00;9.38;;;;;;;20.19;63.59;95115.41;5073312;28;20213;-74
2022/06/17 08:26:29;;;;;;;9.07;8.27;;;;;;;20.31;62.67;95114.88;5092884;27;20627;-74
2022/06/17 08:28:56;;;;;;;9.52;8.20;;;;;;;20.31;61.60;95111.28;5092874;28;20193;-74
2022/06/17 08:31:24;;;;;;;8.57;7.80;;;;;;;20.36;62.51;95111.63;5092731;28;20192;-74
2022/06/17 08:33:50;;;;;;;9.57;8.05;;;;;;;20.40;62.42;95112.38;5092844;28;20220;-74
2022/06/17 08:36:19;;;;;;;9.30;8.40;;;;;;;20.56;62.43;95106.25;5092672;28;20282;-74
2022/06/17 08:38:49;;;;;;;8.63;7.90;;;;;;;20.71;62.46;95100.50;5091737;28;20199;-74
2022/06/17 08:41:25;;;;;;;12.48;8.07;;;;;;;20.85;60.57;95103.91;5125762;28;20200;-74
2022/06/17 08:44:23;;;;;;;8.57;7.63;;;;;;;20.88;60.63;95107.91;5091727;28;20196;-74
2022/06/17 08:47:06;;;;;;;9.10;8.23;;;;;;;20.98;60.34;95104.16;5092622;28;20242;-74
2022/06/17 08:49:45;;;;;;;9.23;8.38;;;;;;;21.04;60.77;95102.47;5091673;28;20199;-74
2022/06/17 08:52:21;;;;;;;8.88;8.10;;;;;;;21.04;61.23;95101.69;5092463;28;20189;-74
2022/06/17 08:54:54;;;;;;;8.75;7.93;;;;;;;21.21;62.28;95092.25;5091469;28;20195;-74
2022/06/17 08:57:30;;;;;;;8.52;7.72;;;;;;;21.33;60.79;95099.28;5092335;28;20192;-74
2022/06/17 09:00:11;;;;;;;9.82;8.45;;;;;;;21.47;59.29;95101.16;5092265;28;20188;-74
2022/06/17 09:03:10;;;;;;;9.50;8.55;;;;;;;21.55;59.81;95097.78;5091328;28;20203;-74
2022/06/17 09:05:46;;;;;;;9.75;8.88;;;;;;;21.67;58.51;95099.22;5083223;28;20223;-73
2022/06/17 09:08:24;;;;;;;11.38;8.68;;;;;;;21.75;59.92;95100.72;5091103;28;20192;-73
2022/06/17 09:11:00;;;;;;;9.80;8.90;;;;;;;21.79;59.70;95109.09;5092073;28;20192;-74
2022/06/17 09:13:36;;;;;;;9.05;8.05;;;;;;;21.84;60.15;95103.78;5124776;28;20192;-74
2022/06/17 09:16:11;;;;;;;10.10;9.10;;;;;;;21.94;59.26;95102.03;5091061;28;20596;-74
2022/06/17 09:18:40;;;;;;;9.65;8.75;;;;;;;21.97;58.79;95097.53;5091178;28;20188;-73
2022/06/17 09:21:11;;;;;;;10.05;8.85;;;;;;;21.96;59.14;95102.38;5090893;28;20292;-73
2022/06/17 09:23:39;;;;;;;9.27;8.18;;;;;;;22.01;58.99;95096.28;5091525;28;20176;-73
2022/06/17 09:26:11;;;;;;;9.35;8.55;;;;;;;22.11;59.09;95098.13;5091661;28;20301;-74
2022/06/17 09:28:41;;;;;;;10.77;9.32;;;;;;;22.22;58.64;95103.59;5091421;28;20241;-74
2022/06/17 09:31:15;;;;;;;9.75;8.88;;;;;;;22.28;59.21;95087.81;5090419;28;20207;-73
2022/06/17 09:33:48;;;;;;;10.32;9.43;;;;;;;22.44;59.83;95086.31;5091645;28;20195;-74
2022/06/17 09:36:18;;;;;;;10.63;9.52;;;;;;;22.52;59.50;95090.59;5069222;28;20209;-74
2022/06/17 09:38:52;;;;;;;10.63;9.63;;;;;;;22.70;57.87;95079.81;5077340;28;20301;-74
2022/06/17 09:41:21;;;;;;;10.30;9.20;;;;;;;22.83;57.75;95085.56;5077226;28;20203;-74
2022/06/17 09:43:52;;;;;;;9.93;9.02;;;;;;;22.93;57.70;95078.97;5076831;28;20204;-74
2022/06/17 09:46:25;;;;;;;10.88;9.90;;;;;;;22.93;56.94;95081.00;5077167;28;20216;-74
2022/06/17 09:48:57;;;;;;;10.68;9.77;;;;;;;22.98;58.06;95083.28;5076866;28;20202;-74
2022/06/17 09:51:30;;;;;;;10.80;9.90;;;;;;;22.99;57.16;95085.69;5076741;28;20529;-74
2022/06/17 09:54:01;;;;;;;9.77;8.90;;;;;;;23.04;55.44;95087.19;5077761;28;20193;-74
2022/06/17 09:56:32;;;;;;;8.55;7.85;;;;;;;23.05;50.86;95080.34;5076720;28;20185;-74
2022/06/17 09:59:03;;;;;;;9.25;8.50;;;;;;;23.10;56.68;95082.66;5076840;28;20266;-74
2022/06/17 10:01:32;;;;;;;6.90;6.30;;;;;;;23.18;52.21;95081.28;5077639;28;20189;-74
2022/06/17 10:03:59;;;;;;;5.57;5.18;;;;;;;23.24;47.05;95078.72;5076875;28;20193;-74
2022/06/17 10:06:32;;;;;;;6.28;5.72;;;;;;;23.35;49.52;95079.31;5076622;28;20224;-74
2022/06/17 10:09:13;;;;;;;6.65;5.70;;;;;;;23.42;48.73;95075.50;5076444;28;20561;-74
2022/06/17 10:11:48;;;;;;;5.28;4.78;;;;;;;23.37;45.68;95082.47;5076816;28;20200;-74
2022/06/17 10:14:24;;;;;;;5.70;5.20;;;;;;;23.37;49.19;95076.03;5076244;28;20625;-74
2022/06/17 10:19:50;;;;;;;6.60;6.00;;;;;;;23.49;48.29;95083.78;5075946;28;20197;-74
2022/06/17 10:22:29;;;;;;;6.55;5.78;;;;;;;23.59;46.77;95081.97;5076285;28;20196;-74
2022/06/17 10:25:02;;;;;;;5.47;4.70;;;;;;;23.62;42.89;95072.66;5075749;28;20668;-74
2022/06/17 10:27:38;;;;;;;5.15;4.75;;;;;;;23.63;45.20;95072.22;5075905;28;20208;-74
2022/06/17 10:30:07;;;;;;;5.30;4.85;;;;;;;23.73;44.66;95057.13;5109966;28;20199;-74
2022/06/17 10:32:39;;;;;;;4.45;4.05;;;;;;;23.77;41.80;95063.47;5076318;28;20676;-73
2022/06/17 10:35:14;;;;;;;4.22;3.92;;;;;;;23.90;43.62;95063.56;5075987;28;20255;-73
2022/06/17 10:37:41;;;;;;;4.28;3.90;;;;;;;24.05;42.86;95066.03;5075770;28;20200;-73
2022/06/17 10:40:10;;;;;;;4.50;4.10;;;;;;;24.12;42.47;95055.38;5076715;28;20185;-74
2022/06/17 10:42:37;;;;;;;5.18;4.72;;;;;;;24.21;44.29;95068.81;5076856;28;20199;-73
2022/06/17 10:45:05;;;;;;;4.85;4.25;;;;;;;24.29;44.32;95063.78;5076629;28;20208;-74
2022/06/17 10:47:39;;;;;;;6.03;4.47;;;;;;;24.35;43.31;95065.63;5076017;28;20195;-74
2022/06/17 10:50:11;;;;;;;5.72;4.85;;;;;;;24.48;44.64;95062.91;5075249;28;20623;-74
2022/06/17 10:52:41;;;;;;;5.50;5.03;;;;;;;24.53;41.96;95062.38;5076754;28;20227;-73
2022/06/17 10:55:14;;;;;;;5.45;5.03;;;;;;;24.57;44.44;95057.44;5076534;28;20254;-74
2022/06/17 10:57:43;;;;;;;5.60;5.10;;;;;;;24.67;43.88;95055.56;5110090;28;20621;-74
2022/06/17 11:00:23;;;;;;;6.07;5.50;;;;;;;24.74;41.51;95064.59;5074969;28;20644;-74
2022/06/17 11:02:51;;;;;;;5.97;5.40;;;;;;;24.77;40.36;95067.78;5075525;28;20189;-74
2022/06/17 11:05:31;;;;;;;5.93;5.43;;;;;;;24.69;41.87;95065.16;5075233;28;20562;-74
2022/06/17 11:07:58;;;;;;;5.63;5.13;;;;;;;24.66;42.39;95071.69;5076168;28;20624;-74
2022/06/17 11:10:27;;;;;;;8.00;6.50;;;;;;;24.77;46.08;95067.78;5076704;28;20199;-74
2022/06/17 11:12:55;;;;;;;8.55;7.57;;;;;;;24.78;48.22;95072.19;5076401;28;20542;-74
2022/06/17 11:15:26;;;;;;;8.15;7.35;;;;;;;24.66;48.82;95068.09;5076527;28;20216;-74
2022/06/17 11:17:58;;;;;;;8.55;7.85;;;;;;;24.57;49.81;95067.91;5075967;28;20258;-74
2022/06/17 11:20:27;;;;;;;8.80;8.00;;;;;;;24.43;50.00;95069.88;5075363;28;20205;-74
2022/06/17 11:22:56;;;;;;;8.50;7.80;;;;;;;24.34;50.57;95069.69;5075428;28;20207;-74
2022/06/17 11:25:26;;;;;;;7.80;7.10;;;;;;;24.19;49.33;95068.50;5074844;28;20232;-74
2022/06/17 11:27:56;;;;;;;7.88;7.18;;;;;;;24.03;49.56;95067.25;5075753;28;20196;-74
2022/06/17 11:30:28;;;;;;;8.18;7.43;;;;;;;23.89;49.55;95059.13;5074801;28;20287;-74
2022/06/17 11:32:57;;;;;;;8.13;7.55;;;;;;;23.78;49.06;95055.81;5074925;28;20197;-74
2022/06/17 11:35:38;;;;;;;7.93;7.15;;;;;;;23.66;48.46;95053.66;5074721;28;20200;-74
2022/06/17 11:38:11;;;;;;;8.90;7.72;;;;;;;23.55;49.32;95062.34;5074821;28;20207;-74
2022/06/17 11:40:49;;;;;;;8.50;7.70;;;;;;;23.49;50.65;95056.47;5075034;28;20605;-74
2022/06/17 11:43:26;;;;;;;8.50;7.78;;;;;;;23.45;49.77;95057.75;5074652;28;20204;-74
2022/06/17 11:45:53;;;;;;;8.02;7.38;;;;;;;23.40;49.77;95049.84;5075463;28;20205;-74
2022/06/17 11:48:22;;;;;;;8.00;7.20;;;;;;;23.37;50.50;95043.06;5074732;28;20201;-74